Time;durP1;ratioP1;P1;durP2;ratioP2;P2;SDS_P1;SDS_P2;PMS_P1;PMS_P2;Temp;Humidity;BMP_temperature;BMP_pressure;BME280_temperature;BME280_humidity;BME280_pressure;Samples;Min_cycle;Max_cycle;Signal;HPM_P1;HPM_P2
2020/12/05 00:04:15;;;;;;;31.48;20.67;;;7.10;92.70;;;;;;10453338;28;20049;-67
2020/12/05 00:09:16;;;;;;;32.88;20.95;;;7.00;92.50;;;;;;10452824;28;20080;-67
2020/12/05 00:14:18;;;;;;;32.75;21.23;;;6.90;92.20;;;;;;10452388;28;20045;-67
2020/12/05 00:19:22;;;;;;;33.08;21.15;;;6.80;92.30;;;;;;10452574;28;20412;-67
2020/12/05 00:24:25;;;;;;;37.83;23.58;;;6.70;92.50;;;;;;10452801;28;20072;-66
2020/12/05 00:29:26;;;;;;;39.13;24.95;;;6.70;93.00;;;;;;10451713;28;20409;-67
2020/12/05 00:34:28;;;;;;;36.40;22.90;;;6.60;94.00;;;;;;10452489;28;20052;-67
2020/12/05 00:39:30;;;;;;;40.65;24.63;;;6.70;94.00;;;;;;10451978;28;20143;-67
2020/12/05 00:44:32;;;;;;;33.72;22.60;;;6.70;94.20;;;;;;10451623;28;20124;-67
2020/12/05 00:49:34;;;;;;;37.08;24.15;;;6.70;93.40;;;;;;10454016;28;20053;-67
2020/12/05 00:54:36;;;;;;;36.92;24.33;;;6.60;93.60;;;;;;10459155;28;20060;-67
2020/12/05 00:59:37;;;;;;;38.10;23.83;;;6.60;93.90;;;;;;10459426;28;20089;-67
2020/12/05 01:04:39;;;;;;;35.95;23.08;;;6.50;94.00;;;;;;10459605;28;20049;-66
2020/12/05 01:09:40;;;;;;;38.22;24.60;;;6.40;94.30;;;;;;10458419;28;20077;-67
2020/12/05 01:14:41;;;;;;;37.70;23.60;;;6.40;94.20;;;;;;10459070;28;20124;-67
2020/12/05 01:19:43;;;;;;;42.97;24.08;;;6.40;94.20;;;;;;10459611;28;20131;-67
2020/12/05 01:24:44;;;;;;;38.70;24.58;;;6.40;94.20;;;;;;10459450;28;20129;-67
2020/12/05 01:29:45;;;;;;;44.90;26.52;;;6.30;94.60;;;;;;10458731;28;20084;-67
2020/12/05 01:34:47;;;;;;;43.40;25.83;;;6.30;95.00;;;;;;10458349;28;20452;-67
2020/12/05 01:39:48;;;;;;;37.55;24.70;;;6.20;95.20;;;;;;10451384;28;20053;-67
2020/12/05 01:44:50;;;;;;;51.08;29.23;;;6.00;95.10;;;;;;10430198;28;20128;-67
2020/12/05 01:49:52;;;;;;;43.58;26.30;;;5.90;96.20;;;;;;10450553;28;20056;-67
2020/12/05 01:54:54;;;;;;;48.78;29.42;;;5.90;95.80;;;;;;10433900;28;20053;-67
2020/12/05 01:59:55;;;;;;;47.92;28.40;;;5.80;96.20;;;;;;10452449;28;20479;-67
2020/12/05 02:05:15;;;;;;;52.28;29.60;;;5.70;96.80;;;;;;10434328;28;20521;-67
2020/12/05 02:10:23;;;;;;;52.40;30.30;;;5.80;97.20;;;;;;10419236;28;20195;-67
2020/12/05 02:15:28;;;;;;;53.58;29.70;;;5.70;97.60;;;;;;10420957;28;20045;-67
2020/12/05 02:20:33;;;;;;;53.03;29.10;;;5.80;97.50;;;;;;10452067;28;20175;-67
2020/12/05 02:25:35;;;;;;;46.53;27.40;;;5.80;97.60;;;;;;10455167;28;20045;-67
2020/12/05 02:30:37;;;;;;;49.72;29.00;;;5.80;97.50;;;;;;10454380;28;20140;-67
2020/12/05 02:35:38;;;;;;;49.05;29.98;;;6.00;97.30;;;;;;10455104;28;20049;-67
2020/12/05 02:40:40;;;;;;;58.83;30.50;;;6.00;97.50;;;;;;10454189;28;20497;-67
2020/12/05 02:45:43;;;;;;;53.72;29.67;;;6.10;97.70;;;;;;10452941;28;20116;-67
2020/12/05 02:50:45;;;;;;;47.70;28.02;;;6.10;97.70;;;;;;10442688;28;20063;-67
2020/12/05 02:55:46;;;;;;;50.58;28.48;;;6.10;97.60;;;;;;10454179;28;20151;-67
2020/12/05 03:00:48;;;;;;;54.65;29.38;;;6.00;97.50;;;;;;10451168;28;20049;-68
2020/12/05 03:05:49;;;;;;;50.75;28.75;;;6.00;97.60;;;;;;10452717;28;20037;-68
2020/12/05 03:10:50;;;;;;;68.55;34.03;;;5.90;97.90;;;;;;10452114;28;20128;-68
2020/12/05 03:15:52;;;;;;;69.88;33.22;;;6.10;98.10;;;;;;10453079;28;20378;-68
2020/12/05 03:20:53;;;;;;;69.88;34.60;;;6.20;97.80;;;;;;10448483;28;20049;-68
2020/12/05 03:25:56;;;;;;;68.03;34.25;;;6.20;97.60;;;;;;10451453;28;20041;-68
2020/12/05 03:30:58;;;;;;;94.68;38.05;;;6.20;97.90;;;;;;10451073;28;20136;-68
2020/12/05 03:35:59;;;;;;;88.57;37.67;;;6.20;97.90;;;;;;10452282;28;20451;-68
2020/12/05 03:41:01;;;;;;;90.18;37.17;;;6.20;97.70;;;;;;10452211;28;20045;-68
2020/12/05 03:46:03;;;;;;;76.75;35.35;;;6.20;97.70;;;;;;10449081;28;20531;-67
2020/12/05 03:51:04;;;;;;;54.25;29.88;;;6.20;97.80;;;;;;10451455;28;20053;-67
2020/12/05 03:56:06;;;;;;;49.72;28.02;;;6.20;97.30;;;;;;10450243;28;20511;-67
2020/12/05 04:01:07;;;;;;;49.95;28.75;;;6.10;97.00;;;;;;10449864;28;20052;-68
2020/12/05 04:06:12;;;;;;;74.85;33.05;;;6.10;97.10;;;;;;10451368;28;20140;-68
2020/12/05 04:11:13;;;;;;;52.85;30.45;;;6.00;97.70;;;;;;10447955;28;20087;-67
2020/12/05 04:16:15;;;;;;;64.13;32.22;;;5.90;97.70;;;;;;10450349;28;20084;-68
2020/12/05 04:21:16;;;;;;;81.55;36.17;;;6.00;98.00;;;;;;10450427;28;20102;-68
2020/12/05 04:27:04;;;;;;;65.22;33.28;;;6.00;98.30;;;;;;10431028;28;20053;-68
2020/12/05 04:32:06;;;;;;;54.45;29.80;;;5.90;98.20;;;;;;10433664;28;20497;-68
2020/12/05 04:37:07;;;;;;;54.78;30.25;;;5.90;98.10;;;;;;10447770;28;20060;-68
2020/12/05 04:42:09;;;;;;;61.65;32.40;;;5.90;98.10;;;;;;10445453;28;20040;-67
2020/12/05 04:47:10;;;;;;;46.15;27.30;;;5.90;98.30;;;;;;10447594;28;20077;-67
2020/12/05 04:52:25;;;;;;;44.88;26.88;;;5.90;97.40;;;;;;10449903;28;20076;-68
2020/12/05 04:57:27;;;;;;;51.25;28.45;;;5.90;96.90;;;;;;10450724;28;20132;-68
2020/12/05 05:02:29;;;;;;;61.00;31.10;;;5.90;97.50;;;;;;10448600;28;20421;-68
2020/12/05 05:07:31;;;;;;;52.65;30.05;;;5.90;97.70;;;;;;10433639;28;20498;-68
2020/12/05 05:12:35;;;;;;;48.67;28.02;;;6.00;97.70;;;;;;10444045;28;20485;-67
2020/12/05 05:17:48;;;;;;;70.45;32.40;;;5.80;97.50;;;;;;10449474;28;20133;-68
2020/12/05 05:22:51;;;;;;;80.25;35.10;;;5.90;98.00;;;;;;10447889;28;20469;-68
2020/12/05 05:27:59;;;;;;;97.65;37.97;;;5.80;97.90;;;;;;10447445;28;20056;-68
2020/12/05 05:33:05;;;;;;;68.25;32.67;;;5.60;98.30;;;;;;10448593;28;20463;-68
2020/12/05 05:38:06;;;;;;;75.68;33.53;;;5.60;98.70;;;;;;10448870;28;20047;-68
2020/12/05 05:43:18;;;;;;;80.93;36.38;;;5.60;98.60;;;;;;10456814;28;20045;-68
2020/12/05 05:48:19;;;;;;;65.38;32.75;;;5.70;98.20;;;;;;10456818;28;20202;-68
2020/12/05 05:53:22;;;;;;;66.15;33.53;;;5.60;98.10;;;;;;10457251;28;20532;-68
2020/12/05 05:58:24;;;;;;;56.75;31.50;;;5.70;98.00;;;;;;10456509;28;20081;-68
2020/12/05 06:03:28;;;;;;;49.63;29.75;;;5.70;98.10;;;;;;10449604;28;20080;-68
2020/12/05 06:08:30;;;;;;;50.45;28.60;;;5.70;98.10;;;;;;10441435;28;20053;-68
2020/12/05 06:13:32;;;;;;;55.85;30.30;;;5.70;98.00;;;;;;10452268;28;20095;-68
2020/12/05 06:18:34;;;;;;;81.43;34.45;;;5.60;98.10;;;;;;10454167;28;20049;-68
2020/12/05 06:23:39;;;;;;;60.97;31.90;;;5.60;98.40;;;;;;10454738;28;20124;-68
2020/12/05 06:28:44;;;;;;;70.30;33.78;;;5.60;98.40;;;;;;10456403;28;20049;-68
2020/12/05 06:33:48;;;;;;;69.40;33.05;;;5.40;98.60;;;;;;10455676;28;20554;-68
2020/12/05 06:39:19;;;;;;;127.45;40.83;;;5.20;99.10;;;;;;10430648;28;20108;-68
2020/12/05 06:44:34;;;;;;;79.70;35.72;;;5.20;99.60;;;;;;10415500;28;20096;-68
2020/12/05 06:49:38;;;;;;;104.05;38.78;;;5.30;99.60;;;;;;10449573;28;20053;-68
2020/12/05 06:54:53;;;;;;;74.22;33.35;;;5.40;99.20;;;;;;10455986;28;20094;-68
2020/12/05 07:00:24;;;;;;;74.07;33.63;;;5.40;98.50;;;;;;10454397;28;20041;-68
2020/12/05 07:05:27;;;;;;;64.10;30.98;;;5.20;98.10;;;;;;10449491;28;20087;-67
2020/12/05 07:10:59;;;;;;;88.05;34.53;;;5.10;98.70;;;;;;10446448;28;20059;-68
2020/12/05 07:16:12;;;;;;;74.45;34.40;;;5.20;98.40;;;;;;10435079;28;20080;-68
2020/12/05 07:21:14;;;;;;;63.95;32.70;;;5.10;98.40;;;;;;10439648;28;20516;-68
2020/12/05 07:26:16;;;;;;;96.60;38.95;;;5.00;99.00;;;;;;10444572;28;20148;-67
2020/12/05 07:31:18;;;;;;;144.70;41.35;;;5.00;99.30;;;;;;10449059;28;20052;-68
2020/12/05 07:36:20;;;;;;;74.15;33.92;;;5.00;99.60;;;;;;10443380;28;20079;-68
2020/12/05 07:41:21;;;;;;;68.05;34.20;;;5.20;99.10;;;;;;10442996;28;20132;-68
2020/12/05 07:46:23;;;;;;;158.48;45.78;;;5.20;98.80;;;;;;10446267;28;20132;-68
2020/12/05 07:51:25;;;;;;;292.05;49.42;;;5.30;98.80;;;;;;10444614;28;20606;-68
2020/12/05 07:56:26;;;;;;;215.18;50.67;;;5.30;99.00;;;;;;10443584;28;20076;-68
2020/12/05 08:01:53;;;;;;;166.77;45.22;;;5.20;99.20;;;;;;10440881;28;20148;-67
2020/12/05 08:06:54;;;;;;;107.78;40.83;;;5.30;99.40;;;;;;10440601;28;20045;-68
2020/12/05 08:11:56;;;;;;;87.32;38.10;;;5.40;99.20;;;;;;10444638;28;20041;-68
2020/12/05 08:17:01;;;;;;;77.00;35.20;;;5.40;99.30;;;;;;10439406;28;20472;-68
2020/12/05 08:22:08;;;;;;;92.68;39.25;;;5.60;99.30;;;;;;10444610;28;20303;-68
2020/12/05 08:27:09;;;;;;;74.05;35.70;;;5.60;99.20;;;;;;10446128;28;20103;-68
2020/12/05 08:32:19;;;;;;;68.55;34.80;;;5.70;99.20;;;;;;10439474;28;20111;-68
2020/12/05 08:37:25;;;;;;;170.20;40.50;;;5.70;99.30;;;;;;10444701;28;20057;-68
2020/12/05 08:42:28;;;;;;;175.70;47.63;;;5.40;99.60;;;;;;10447466;28;20048;-68
2020/12/05 08:47:29;;;;;;;69.53;35.88;;;5.30;99.90;;;;;;10444808;28;20084;-68
2020/12/05 08:52:33;;;;;;;85.72;39.13;;;5.60;99.90;;;;;;10441503;28;20037;-68
2020/12/05 08:57:34;;;;;;;59.63;31.58;;;5.70;99.90;;;;;;10444394;28;20104;-68
2020/12/05 09:02:37;;;;;;;65.63;33.45;;;5.90;99.40;;;;;;10451507;28;20068;-68
2020/12/05 09:07:38;;;;;;;55.45;30.33;;;5.90;99.10;;;;;;10451421;28;20132;-68
2020/12/05 09:12:40;;;;;;;76.28;35.60;;;6.00;99.10;;;;;;10456061;28;20041;-67
2020/12/05 09:17:42;;;;;;;73.05;36.95;;;6.20;99.20;;;;;;10457383;28;20132;-68
2020/12/05 09:22:57;;;;;;;45.30;27.88;;;6.30;99.10;;;;;;10459785;28;20067;-68
2020/12/05 09:28:00;;;;;;;56.10;31.92;;;6.50;98.80;;;;;;10458716;28;20140;-68
2020/12/05 09:33:12;;;;;;;53.75;31.05;;;6.40;98.70;;;;;;10457961;28;20045;-68
2020/12/05 09:38:13;;;;;;;53.92;30.48;;;6.30;99.10;;;;;;10458555;28;20049;-68
2020/12/05 09:43:15;;;;;;;52.67;31.38;;;6.30;98.70;;;;;;10458610;28;20529;-68
2020/12/05 09:48:16;;;;;;;96.88;40.95;;;6.30;98.80;;;;;;10458163;28;20049;-68
2020/12/05 09:53:18;;;;;;;87.03;39.55;;;6.20;99.10;;;;;;10458215;28;20052;-67
2020/12/05 09:58:21;;;;;;;75.78;38.05;;;5.90;99.40;;;;;;10458043;28;20052;-68
2020/12/05 10:03:22;;;;;;;67.40;35.08;;;5.70;99.90;;;;;;10456797;28;20045;-68
2020/12/05 10:08:24;;;;;;;58.55;32.63;;;6.10;99.90;;;;;;10456425;28;20137;-68
2020/12/05 10:13:25;;;;;;;66.07;35.53;;;6.40;99.80;;;;;;10456997;28;20041;-68
2020/12/05 10:18:27;;;;;;;54.50;31.85;;;6.50;99.90;;;;;;10456673;28;20331;-68
2020/12/05 10:23:28;;;;;;;57.15;31.05;;;6.50;99.90;;;;;;10456679;28;20711;-69
2020/12/05 10:28:30;;;;;;;48.55;30.08;;;6.70;99.90;;;;;;10456329;28;20053;-70
2020/12/05 10:33:31;;;;;;;41.35;27.70;;;7.00;99.30;;;;;;10445460;28;20049;-70
2020/12/05 10:38:33;;;;;;;57.92;33.50;;;7.20;99.00;;;;;;10445877;28;20099;-70
2020/12/05 10:43:34;;;;;;;33.42;22.90;;;7.40;99.00;;;;;;10444064;28;20080;-70
2020/12/05 10:48:36;;;;;;;37.55;24.27;;;7.50;98.30;;;;;;10446145;28;20091;-70
2020/12/05 10:53:37;;;;;;;34.17;23.48;;;7.40;98.10;;;;;;10445489;28;20061;-70
2020/12/05 10:58:41;;;;;;;35.30;22.85;;;7.70;98.10;;;;;;10434900;28;20604;-70
2020/12/05 11:03:43;;;;;;;30.27;21.60;;;7.60;98.30;;;;;;10447145;28;20065;-70
2020/12/05 11:08:44;;;;;;;31.67;21.85;;;7.80;98.70;;;;;;10460583;28;20480;-70
2020/12/05 11:13:46;;;;;;;25.83;18.85;;;8.10;97.60;;;;;;10444224;28;20127;-70
2020/12/05 11:18:48;;;;;;;69.90;27.95;;;8.10;97.20;;;;;;10447291;28;20263;-70
2020/12/05 11:23:50;;;;;;;31.00;19.42;;;8.20;98.00;;;;;;10441500;28;20045;-70
2020/12/05 11:28:51;;;;;;;28.55;18.77;;;8.10;97.50;;;;;;10437829;28;20103;-70
2020/12/05 11:33:53;;;;;;;27.70;14.35;;;8.10;97.80;;;;;;10440861;28;20073;-69
2020/12/05 11:38:54;;;;;;;21.38;12.18;;;8.10;97.60;;;;;;10443841;28;20045;-69
2020/12/05 11:43:56;;;;;;;12.07;8.27;;;8.20;96.80;;;;;;10437794;28;20055;-70
2020/12/05 11:48:58;;;;;;;9.38;6.65;;;8.20;96.70;;;;;;10435107;28;20460;-70
2020/12/05 11:53:59;;;;;;;11.80;7.88;;;8.30;95.80;;;;;;10442703;28;20132;-70
2020/12/05 11:59:01;;;;;;;12.73;10.18;;;8.10;96.30;;;;;;10445010;28;20072;-69
2020/12/05 12:04:02;;;;;;;13.30;10.02;;;7.90;96.40;;;;;;10457542;28;20053;-69
2020/12/05 12:09:06;;;;;;;12.82;9.20;;;7.80;96.40;;;;;;10439174;28;20053;-70
2020/12/05 12:14:08;;;;;;;12.38;8.90;;;7.90;96.10;;;;;;10444127;28;20093;-70
2020/12/05 12:19:10;;;;;;;10.27;8.02;;;8.00;95.90;;;;;;10439565;28;20138;-69
2020/12/05 12:24:11;;;;;;;15.57;9.38;;;8.10;95.60;;;;;;10444841;28;20124;-70
2020/12/05 12:29:13;;;;;;;12.95;8.82;;;8.30;95.00;;;;;;10443867;28;20554;-70
2020/12/05 12:34:14;;;;;;;14.18;10.05;;;8.30;94.10;;;;;;10447633;28;20150;-69
2020/12/05 12:39:16;;;;;;;14.07;9.80;;;8.30;94.80;;;;;;10447177;28;20092;-70
2020/12/05 12:44:17;;;;;;;16.13;9.85;;;8.40;94.80;;;;;;10441624;28;20044;-70
2020/12/05 12:49:19;;;;;;;13.98;9.55;;;8.50;94.60;;;;;;10452763;28;20063;-70
2020/12/05 12:54:21;;;;;;;16.00;12.18;;;8.40;94.00;;;;;;10448898;28;20593;-70
2020/12/05 12:59:23;;;;;;;18.83;12.70;;;8.10;94.70;;;;;;10448724;28;20118;-70
2020/12/05 13:04:25;;;;;;;16.63;12.88;;;7.90;94.90;;;;;;10448856;28;20037;-70
2020/12/05 13:09:26;;;;;;;18.77;12.63;;;7.90;95.10;;;;;;10452679;28;20194;-70
2020/12/05 13:14:29;;;;;;;17.98;12.48;;;7.80;95.40;;;;;;10443113;28;20053;-69
2020/12/05 13:19:31;;;;;;;14.18;11.52;;;7.70;95.50;;;;;;10459249;28;20128;-70
2020/12/05 13:24:33;;;;;;;15.05;11.15;;;7.70;95.60;;;;;;10455094;28;20069;-69
2020/12/05 13:29:35;;;;;;;17.65;10.73;;;7.70;95.00;;;;;;10447782;28;20081;-70
2020/12/05 13:34:36;;;;;;;14.27;9.48;;;8.00;95.30;;;;;;10453714;28;20076;-69
2020/12/05 13:39:40;;;;;;;11.82;8.55;;;8.20;94.60;;;;;;10437899;28;20080;-69
2020/12/05 13:44:44;;;;;;;12.20;7.90;;;8.10;94.50;;;;;;10442276;28;20069;-70
2020/12/05 13:49:50;;;;;;;10.32;6.90;;;8.20;94.00;;;;;;10446965;28;20060;-70
2020/12/05 13:54:51;;;;;;;9.70;6.50;;;8.20;93.60;;;;;;10444735;28;20552;-70
2020/12/05 13:59:52;;;;;;;8.48;5.82;;;8.10;93.60;;;;;;10448019;28;20077;-70
2020/12/05 14:04:54;;;;;;;7.50;5.93;;;8.00;92.90;;;;;;10433049;28;20071;-70
2020/12/05 14:09:58;;;;;;;8.25;5.70;;;7.90;93.00;;;;;;10447601;28;20076;-70
2020/12/05 14:15:00;;;;;;;8.40;5.97;;;7.90;92.90;;;;;;10449996;28;20120;-69
2020/12/05 14:20:03;;;;;;;7.25;5.43;;;7.90;93.10;;;;;;10449870;28;20087;-70
2020/12/05 14:25:05;;;;;;;7.70;5.38;;;7.90;92.80;;;;;;10442400;28;20080;-70
2020/12/05 14:30:06;;;;;;;7.57;5.57;;;7.80;92.90;;;;;;10442909;28;20587;-70
2020/12/05 14:35:08;;;;;;;8.02;5.90;;;7.80;93.00;;;;;;10449740;28;20080;-69
2020/12/05 14:40:09;;;;;;;9.07;6.20;;;7.80;93.20;;;;;;10447905;28;20132;-70
2020/12/05 14:45:11;;;;;;;8.32;5.53;;;7.70;93.10;;;;;;10447435;28;20124;-69
2020/12/05 14:50:12;;;;;;;8.23;5.90;;;7.60;93.00;;;;;;10442703;28;20073;-69
2020/12/05 14:55:15;;;;;;;8.40;6.05;;;7.50;93.10;;;;;;10444740;28;20120;-70
2020/12/05 15:00:16;;;;;;;10.40;6.35;;;7.50;93.00;;;;;;10447380;28;20045;-69
2020/12/05 15:05:17;;;;;;;8.68;6.35;;;7.50;92.90;;;;;;10442835;28;20128;-70
2020/12/05 15:10:21;;;;;;;9.15;6.75;;;7.30;92.90;;;;;;10432238;28;20549;-70
2020/12/05 15:15:24;;;;;;;9.23;7.70;;;7.00;93.50;;;;;;10439872;28;20516;-69
2020/12/05 15:20:26;;;;;;;11.18;7.50;;;6.90;93.60;;;;;;10438241;28;20081;-70
2020/12/05 15:25:28;;;;;;;8.18;6.90;;;6.70;93.60;;;;;;10443064;28;20628;-70
2020/12/05 15:30:29;;;;;;;9.13;6.78;;;6.60;93.60;;;;;;10441957;28;20544;-69
2020/12/05 15:35:31;;;;;;;9.15;8.00;;;6.60;93.80;;;;;;10433680;28;20043;-69
2020/12/05 15:40:33;;;;;;;10.43;8.32;;;6.50;93.80;;;;;;10444552;28;20051;-68
2020/12/05 15:45:36;;;;;;;11.93;8.57;;;6.50;93.90;;;;;;10445704;28;20111;-69
2020/12/05 15:50:38;;;;;;;10.93;9.25;;;6.40;94.10;;;;;;10445111;28;20057;-69
2020/12/05 15:55:39;;;;;;;12.35;10.15;;;6.40;94.30;;;;;;10444244;28;20125;-69
2020/12/05 16:00:43;;;;;;;13.48;10.88;;;6.40;94.70;;;;;;10447237;28;20401;-67
2020/12/05 16:05:45;;;;;;;14.55;12.35;;;6.30;95.20;;;;;;10444155;28;20075;-67
2020/12/05 16:10:47;;;;;;;13.80;12.30;;;6.30;95.50;;;;;;10431093;28;20069;-67
2020/12/05 16:15:48;;;;;;;13.15;11.07;;;6.30;95.80;;;;;;10444762;28;20124;-67
2020/12/05 16:20:50;;;;;;;12.60;11.25;;;6.30;95.80;;;;;;10436614;28;20094;-67
2020/12/05 16:25:52;;;;;;;12.93;11.52;;;6.50;96.10;;;;;;10440442;28;20520;-67
2020/12/05 16:30:53;;;;;;;13.35;11.95;;;6.60;96.00;;;;;;10434163;28;20572;-67
2020/12/05 16:35:54;;;;;;;13.38;11.82;;;6.70;95.90;;;;;;10439911;28;20041;-67
2020/12/05 16:40:56;;;;;;;15.45;11.65;;;6.80;95.70;;;;;;10445059;28;20485;-67
2020/12/05 16:45:57;;;;;;;14.43;12.93;;;6.90;95.40;;;;;;10444628;28;20136;-67
2020/12/05 16:50:59;;;;;;;13.10;11.68;;;7.00;95.40;;;;;;10431332;28;20057;-67
2020/12/05 16:56:05;;;;;;;14.82;13.15;;;7.00;95.00;;;;;;10442453;28;20149;-67
2020/12/05 17:01:07;;;;;;;16.15;13.80;;;6.90;95.60;;;;;;10438864;28;20115;-67
2020/12/05 17:06:08;;;;;;;17.33;13.88;;;7.00;95.70;;;;;;10443663;28;20678;-67
2020/12/05 17:11:12;;;;;;;15.23;12.93;;;7.00;95.80;;;;;;10440627;28;20580;-67
2020/12/05 17:16:14;;;;;;;16.38;14.18;;;7.00;95.40;;;;;;10441049;28;20124;-67
2020/12/05 17:21:24;;;;;;;18.05;14.70;;;7.00;95.50;;;;;;10443579;28;20163;-67
2020/12/05 17:26:25;;;;;;;19.02;16.20;;;6.90;95.60;;;;;;10443652;28;20047;-67
2020/12/05 17:31:26;;;;;;;21.75;15.75;;;6.80;95.70;;;;;;10444742;28;20056;-67
2020/12/05 17:36:28;;;;;;;19.58;14.25;;;6.70;96.00;;;;;;10444456;28;20500;-67
2020/12/05 17:41:29;;;;;;;16.25;14.25;;;6.60;95.90;;;;;;10447789;28;20464;-67
2020/12/05 17:46:31;;;;;;;16.88;14.25;;;6.60;96.00;;;;;;10450134;28;20577;-67
2020/12/05 17:51:32;;;;;;;18.00;14.48;;;6.50;96.10;;;;;;10450293;28;20088;-67
2020/12/05 17:56:34;;;;;;;19.30;14.80;;;6.50;96.20;;;;;;10439388;28;20051;-67
2020/12/05 18:01:35;;;;;;;20.80;17.23;;;6.40;96.10;;;;;;10448243;28;20372;-67
2020/12/05 18:06:36;;;;;;;23.17;17.90;;;6.30;96.60;;;;;;10444484;28;20509;-67
2020/12/05 18:11:38;;;;;;;24.85;18.50;;;6.30;96.90;;;;;;10448468;28;20553;-67
2020/12/05 18:16:39;;;;;;;22.23;18.00;;;6.20;96.90;;;;;;10442776;28;20052;-67
2020/12/05 18:21:42;;;;;;;22.13;18.42;;;6.10;97.00;;;;;;10442177;28;20420;-67
2020/12/05 18:26:45;;;;;;;21.80;18.27;;;6.00;97.30;;;;;;10447865;28;20044;-67
2020/12/05 18:31:49;;;;;;;20.20;17.75;;;6.00;97.60;;;;;;10449344;28;20390;-67
2020/12/05 18:36:50;;;;;;;24.55;19.25;;;6.00;97.80;;;;;;10443213;28;20120;-67
2020/12/05 18:41:52;;;;;;;21.23;18.25;;;6.00;97.70;;;;;;10441232;28;20049;-67
2020/12/05 18:47:04;;;;;;;22.63;18.77;;;6.00;97.80;;;;;;10448617;28;20041;-67
2020/12/05 18:52:06;;;;;;;23.08;19.33;;;6.00;97.60;;;;;;10440215;28;20060;-67
2020/12/05 18:57:10;;;;;;;21.10;17.98;;;6.00;97.50;;;;;;10445612;28;20045;-67
2020/12/05 19:02:12;;;;;;;20.65;17.52;;;5.90;97.50;;;;;;10446567;28;20060;-67
2020/12/05 19:07:13;;;;;;;22.55;19.65;;;5.90;97.60;;;;;;10443400;28;20048;-67
2020/12/05 19:12:16;;;;;;;22.40;18.55;;;5.90;97.60;;;;;;10444958;28;20387;-67
2020/12/05 19:17:18;;;;;;;22.98;18.52;;;5.80;97.60;;;;;;10443752;28;20148;-67
2020/12/05 19:22:19;;;;;;;22.17;18.58;;;5.70;97.80;;;;;;10445293;28;20080;-67
2020/12/05 19:27:21;;;;;;;25.63;18.98;;;5.80;98.00;;;;;;10440599;28;20047;-67
2020/12/05 19:32:22;;;;;;;24.02;18.83;;;5.80;98.20;;;;;;10446242;28;20055;-67
2020/12/05 19:37:23;;;;;;;22.83;18.30;;;5.70;98.20;;;;;;10441683;28;20049;-67
2020/12/05 19:42:25;;;;;;;23.25;18.50;;;5.80;98.20;;;;;;10445859;28;20057;-67
2020/12/05 19:47:27;;;;;;;19.55;16.95;;;5.90;98.10;;;;;;10432512;28;20413;-67
2020/12/05 19:52:28;;;;;;;20.77;17.42;;;5.90;97.90;;;;;;10443743;28;20140;-67
2020/12/05 19:57:29;;;;;;;19.83;16.35;;;5.90;97.50;;;;;;10445358;28;20041;-67
2020/12/05 20:02:31;;;;;;;21.23;17.17;;;5.90;97.60;;;;;;10437908;28;20284;-67
2020/12/05 20:07:33;;;;;;;19.73;16.48;;;5.90;97.60;;;;;;10440641;28;20578;-67
2020/12/05 20:12:35;;;;;;;18.77;15.07;;;5.80;97.90;;;;;;10448001;28;20409;-67
2020/12/05 20:17:36;;;;;;;19.90;16.60;;;5.80;97.40;;;;;;10444484;28;20128;-67
2020/12/05 20:22:38;;;;;;;21.15;17.65;;;5.70;97.30;;;;;;10447474;28;20051;-67
2020/12/05 20:27:39;;;;;;;21.77;17.90;;;5.70;97.30;;;;;;10440038;28;20067;-67
2020/12/05 20:32:44;;;;;;;22.92;18.17;;;5.80;97.30;;;;;;10438251;28;20044;-67
2020/12/05 20:37:46;;;;;;;19.52;15.82;;;5.90;96.70;;;;;;10444989;28;20064;-67
2020/12/05 20:42:48;;;;;;;20.98;17.55;;;5.80;96.60;;;;;;10439454;28;20444;-67
2020/12/05 20:47:50;;;;;;;23.23;17.10;;;5.80;96.80;;;;;;10444841;28;20037;-67
2020/12/05 20:52:51;;;;;;;19.77;16.10;;;5.80;96.80;;;;;;10436538;28;20057;-67
2020/12/05 20:57:53;;;;;;;21.10;17.40;;;5.80;96.80;;;;;;10445095;28;20053;-67
2020/12/05 21:02:54;;;;;;;22.92;18.90;;;5.80;96.60;;;;;;10446594;28;20106;-67
2020/12/05 21:07:56;;;;;;;23.42;18.50;;;5.70;96.70;;;;;;10453171;28;20478;-67
2020/12/05 21:12:57;;;;;;;23.48;18.60;;;5.60;97.10;;;;;;10455726;28;20041;-67
2020/12/05 21:17:59;;;;;;;24.70;19.45;;;5.60;97.20;;;;;;10455483;28;20400;-67
2020/12/05 21:23:03;;;;;;;25.63;19.38;;;5.80;97.20;;;;;;10456492;28;20068;-67
2020/12/05 21:28:05;;;;;;;26.35;19.52;;;5.90;97.10;;;;;;10458814;28;20095;-67
2020/12/05 21:33:07;;;;;;;25.02;19.58;;;5.70;97.20;;;;;;10457017;28;20136;-67
2020/12/05 21:38:08;;;;;;;24.08;19.08;;;5.60;97.30;;;;;;10457096;28;20052;-67
2020/12/05 21:43:13;;;;;;;23.45;19.10;;;5.70;97.50;;;;;;10457574;28;20053;-67
2020/12/05 21:48:25;;;;;;;25.85;19.55;;;5.70;97.30;;;;;;10457523;28;20049;-67
2020/12/05 21:53:26;;;;;;;25.38;19.40;;;5.80;97.10;;;;;;10444996;28;20049;-67
2020/12/05 21:58:29;;;;;;;25.63;20.25;;;5.80;96.90;;;;;;10457049;28;20074;-67
2020/12/05 22:03:32;;;;;;;27.98;19.90;;;5.60;97.20;;;;;;10457103;28;20569;-67
2020/12/05 22:08:34;;;;;;;25.70;19.95;;;5.60;97.40;;;;;;10457062;28;20076;-67
2020/12/05 22:13:35;;;;;;;27.83;20.60;;;5.50;97.50;;;;;;10455296;28;20128;-67
2020/12/05 22:18:37;;;;;;;30.15;22.63;;;5.30;97.60;;;;;;10455975;28;20057;-67
2020/12/05 22:23:39;;;;;;;29.83;22.15;;;5.30;97.80;;;;;;10455939;28;20087;-67
2020/12/05 22:28:40;;;;;;;33.47;23.13;;;5.10;98.10;;;;;;10456196;28;20092;-67
2020/12/05 22:33:42;;;;;;;31.02;21.70;;;5.20;98.10;;;;;;10439003;28;20120;-67
2020/12/05 22:38:46;;;;;;;31.15;21.80;;;5.30;97.90;;;;;;10453418;28;20479;-67
2020/12/05 22:43:48;;;;;;;31.77;22.58;;;5.20;97.60;;;;;;10455140;28;20409;-67
2020/12/05 22:48:50;;;;;;;31.38;22.77;;;5.20;97.50;;;;;;10454434;28;20061;-68
2020/12/05 22:53:51;;;;;;;33.28;23.52;;;5.20;97.70;;;;;;10455682;28;20045;-67
2020/12/05 22:58:53;;;;;;;33.90;23.60;;;5.20;97.50;;;;;;10445587;28;20056;-67
2020/12/05 23:03:54;;;;;;;35.22;24.40;;;5.20;97.90;;;;;;10446276;28;20519;-67
2020/12/05 23:08:57;;;;;;;32.55;23.17;;;5.30;97.60;;;;;;10452058;28;20128;-67
2020/12/05 23:13:58;;;;;;;33.25;23.20;;;5.40;97.60;;;;;;10453311;28;20083;-67
2020/12/05 23:19:02;;;;;;;35.45;25.35;;;5.40;97.40;;;;;;10453154;28;20128;-67
2020/12/05 23:24:07;;;;;;;38.60;26.13;;;5.30;97.50;;;;;;10452822;28;20045;-67
2020/12/05 23:29:11;;;;;;;38.65;25.45;;;5.30;97.40;;;;;;10422868;28;20049;-67
2020/12/05 23:34:19;;;;;;;34.53;23.88;;;5.30;97.40;;;;;;10445177;28;20055;-67
2020/12/05 23:39:25;;;;;;;35.90;24.70;;;5.10;97.90;;;;;;10439726;28;20553;-67
2020/12/05 23:44:27;;;;;;;35.00;23.75;;;5.10;98.20;;;;;;10451781;28;20041;-67
2020/12/05 23:49:28;;;;;;;31.10;23.50;;;5.20;98.20;;;;;;10451288;28;20060;-67
2020/12/05 23:54:32;;;;;;;41.05;26.67;;;5.30;98.00;;;;;;10430530;28;20069;-67
2020/12/05 23:59:34;;;;;;;35.83;24.50;;;5.30;97.70;;;;;;10450925;28;20140;-67
